createdAt,value
2024-03-23T00:02:53.783Z,98852.29
2024-03-23T00:07:59.553Z,98849.27
2024-03-23T00:13:04.941Z,98850.10
2024-03-23T00:18:09.204Z,98846.02
2024-03-23T00:23:13.463Z,98843.73
2024-03-23T00:28:17.852Z,98840.16
2024-03-23T00:33:22.192Z,98832.92
2024-03-23T00:38:26.899Z,98829.39
2024-03-23T00:43:31.703Z,98826.66
2024-03-23T00:48:36.298Z,98821.32
2024-03-23T00:53:40.743Z,98821.38
2024-03-23T00:58:45.243Z,98822.94
2024-03-23T01:03:49.560Z,98828.77
2024-03-23T01:08:53.854Z,98821.08
2024-03-23T01:13:58.578Z,98819.67
2024-03-23T01:19:03.337Z,98814.73
2024-03-23T01:24:09.788Z,98812.13
2024-03-23T01:29:14.644Z,98813.38
2024-03-23T01:34:20.216Z,98812.05
2024-03-23T01:39:24.665Z,98810.70
2024-03-23T01:44:29.120Z,98812.69
2024-03-23T01:49:33.508Z,98821.28
2024-03-23T01:54:36.835Z,98819.42
2024-03-23T01:59:41.213Z,98822.34
2024-03-23T02:04:46.492Z,98820.73
2024-03-23T02:09:51.282Z,98810.39
2024-03-23T02:14:56.139Z,98815.84
2024-03-23T02:20:00.996Z,98809.35
2024-03-23T02:25:06.137Z,98799.71
2024-03-23T02:30:11.375Z,98799.71
2024-03-23T02:35:16.023Z,98796.23
2024-03-23T02:40:21.507Z,98803.10
2024-03-23T02:45:26.001Z,98801.80
2024-03-23T02:50:30.557Z,98799.02
2024-03-23T02:55:34.960Z,98793.48
2024-03-23T03:06:31.766Z,98793.12
2024-03-23T03:11:36.266Z,98787.52
2024-03-23T03:16:40.848Z,98787.21
2024-03-23T03:21:45.209Z,98786.52
2024-03-23T03:26:50.528Z,98790.49
2024-03-23T03:31:54.926Z,98791.20
2024-03-23T03:36:59.840Z,98791.11
2024-03-23T03:42:07.436Z,98784.33
2024-03-23T03:47:11.987Z,98777.06
2024-03-23T03:52:16.238Z,98777.87
2024-03-23T03:57:20.664Z,98779.21
2024-03-23T04:02:25.047Z,98778.41
2024-03-23T04:07:29.428Z,98772.84
2024-03-23T04:12:33.822Z,98775.51
2024-03-23T04:17:38.576Z,98771.44
2024-03-23T04:22:43.037Z,98768.37
2024-03-23T04:27:47.396Z,98767.36
2024-03-23T04:32:51.977Z,98760.92
2024-03-23T04:37:59.464Z,98765.05
2024-03-23T04:43:05.438Z,98763.77
2024-03-23T04:48:10.943Z,98759.66
2024-03-23T04:53:16.596Z,98755.08
2024-03-23T04:58:21.029Z,98750.23
2024-03-23T05:03:25.395Z,98751.14
2024-03-23T05:08:31.121Z,98753.14
2024-03-23T05:13:35.363Z,98745.83
2024-03-23T05:18:39.832Z,98731.51
2024-03-23T05:23:44.805Z,98725.63
2024-03-23T05:28:49.105Z,98722.00
2024-03-23T05:33:53.678Z,98724.34
2024-03-23T05:38:57.954Z,98725.96
2024-03-23T05:44:02.319Z,98722.20
2024-03-23T05:49:06.646Z,98711.96
2024-03-23T05:54:10.100Z,98700.34
2024-03-23T05:59:14.539Z,98687.76
2024-03-23T06:04:19.202Z,98702.91
2024-03-23T06:09:23.474Z,98696.13
2024-03-23T06:14:27.772Z,98690.61
2024-03-23T06:19:32.410Z,98678.45
2024-03-23T06:24:36.771Z,98674.27
2024-03-23T06:29:41.036Z,98670.48
2024-03-23T06:34:45.611Z,98674.56
2024-03-23T06:39:49.912Z,98671.68
2024-03-23T06:44:54.328Z,98678.20
2024-03-23T06:49:58.614Z,98675.23
2024-03-23T06:55:05.266Z,98671.94
2024-03-23T07:00:10.918Z,98672.21
2024-03-23T07:05:15.970Z,98675.32
2024-03-23T07:10:20.587Z,98674.77
2024-03-23T07:15:24.961Z,98676.09
2024-03-23T07:20:31.414Z,98672.97
2024-03-23T07:25:35.902Z,98667.04
2024-03-23T07:30:40.466Z,98671.49
2024-03-23T07:35:45.181Z,98675.08
2024-03-23T07:40:50.801Z,98679.11
2024-03-23T07:45:55.169Z,98672.98
2024-03-23T07:51:00.778Z,98670.84
2024-03-23T07:56:07.006Z,98667.02
2024-03-23T08:01:11.687Z,98657.31
2024-03-23T08:06:16.712Z,98670.41
2024-03-23T08:11:20.938Z,98643.45
2024-03-23T08:16:25.687Z,98636.23
2024-03-23T08:21:30.176Z,98633.45
2024-03-23T08:26:33.811Z,98624.27
2024-03-23T08:31:38.904Z,98617.88
2024-03-23T08:36:43.748Z,98611.98
2024-03-23T08:41:48.097Z,98607.06
2024-03-23T08:46:52.827Z,98600.23
2024-03-23T08:51:57.212Z,98604.77
2024-03-23T08:57:01.522Z,98601.80
2024-03-23T09:02:06.037Z,98603.35
2024-03-23T09:07:10.846Z,98594.63
2024-03-23T09:12:15.638Z,98583.41
2024-03-23T09:17:20.153Z,98582.52
2024-03-23T09:22:25.310Z,98577.69
2024-03-23T09:27:29.695Z,98576.64
2024-03-23T09:32:33.944Z,98573.82
2024-03-23T09:37:38.473Z,98563.48
2024-03-23T09:42:47.947Z,98540.12
2024-03-23T09:47:52.410Z,98524.38
2024-03-23T09:52:56.578Z,98521.86
2024-03-23T09:58:01.471Z,98508.52
2024-03-23T10:03:08.903Z,98506.74
2024-03-23T10:08:22.333Z,98510.67
2024-03-23T10:13:30.191Z,98519.93
2024-03-23T10:18:39.607Z,98507.17
2024-03-23T10:23:45.081Z,98492.23
2024-03-23T10:28:55.797Z,98487.15
2024-03-23T10:34:01.792Z,98480.16
2024-03-23T10:39:08.891Z,98474.38
2024-03-23T10:44:13.705Z,98472.31
2024-03-23T10:49:17.998Z,98472.02
2024-03-23T10:54:23.054Z,98456.98
2024-03-23T10:59:27.981Z,98458.05
2024-03-23T11:04:36.118Z,98459.17
2024-03-23T11:09:46.054Z,98462.64
2024-03-23T11:14:51.188Z,98453.20
2024-03-23T11:19:59.619Z,98447.11
2024-03-23T11:25:04.437Z,98439.79
2024-03-23T11:30:16.799Z,98431.01
2024-03-23T11:35:31.904Z,98430.04
2024-03-23T11:40:37.831Z,98432.52
2024-03-23T11:45:42.666Z,98419.45
2024-03-23T11:50:47.544Z,98409.94
2024-03-23T11:55:52.904Z,98410.81
2024-03-23T12:00:59.148Z,98401.84
2024-03-23T12:06:04.835Z,98398.39
2024-03-23T12:11:10.596Z,98391.58
2024-03-23T12:16:15.572Z,98384.96
2024-03-23T12:21:20.514Z,98384.05
2024-03-23T12:26:25.209Z,98380.66
2024-03-23T12:31:29.514Z,98377.02
2024-03-23T12:36:33.890Z,98364.23
2024-03-23T12:41:38.673Z,98347.41
2024-03-23T12:46:43.409Z,98335.73
2024-03-23T12:51:50.257Z,98333.87
2024-03-23T12:56:54.356Z,98336.52
2024-03-23T13:01:59.122Z,98328.98
2024-03-23T13:07:03.277Z,98324.45
2024-03-23T13:12:08.528Z,98320.55
2024-03-23T13:17:13.360Z,98319.33
2024-03-23T13:22:17.084Z,98320.85
2024-03-23T13:27:21.799Z,98313.14
2024-03-23T13:32:26.510Z,98314.85
2024-03-23T13:37:30.833Z,98310.45
2024-03-23T13:42:34.662Z,98310.84
2024-03-23T13:47:39.446Z,98303.50
2024-03-23T13:52:43.596Z,98294.42
2024-03-23T13:57:47.883Z,98291.48
2024-03-23T14:02:52.640Z,98286.70
2024-03-23T14:07:56.907Z,98280.96
2024-03-23T14:13:01.273Z,98261.02
2024-03-23T14:18:05.744Z,98250.17
2024-03-23T14:23:10.097Z,98235.46
2024-03-23T14:28:17.204Z,98214.84
2024-03-23T14:33:21.595Z,98220.29
2024-03-23T14:38:26.106Z,98216.98
2024-03-23T14:43:30.614Z,98205.27
2024-03-23T14:48:35.639Z,98202.77
2024-03-23T14:53:41.090Z,98205.69
2024-03-23T14:58:46.603Z,98202.48
2024-03-23T15:03:54.244Z,98190.14
2024-03-23T15:08:58.448Z,98182.30
2024-03-23T15:14:02.742Z,98179.20
2024-03-23T15:19:07.505Z,98171.83
2024-03-23T15:24:12.695Z,98177.02
2024-03-23T15:29:18.091Z,98169.81
2024-03-23T15:34:23.064Z,98163.40
2024-03-23T15:39:30.585Z,98152.15
2024-03-23T15:44:35.942Z,98144.29
2024-03-23T15:49:40.201Z,98128.59
2024-03-23T15:54:46.798Z,98116.03
2024-03-23T15:59:51.469Z,98110.56
2024-03-23T16:04:55.885Z,98110.85
2024-03-23T16:10:06.442Z,98101.91
2024-03-23T16:15:11.626Z,98095.88
2024-03-23T16:20:16.001Z,98098.90
2024-03-23T16:25:20.260Z,98108.52
2024-03-23T16:30:24.768Z,98108.63
2024-03-23T16:35:29.007Z,98103.85
2024-03-23T16:40:33.447Z,98094.64
2024-03-23T16:45:37.904Z,98097.52
2024-03-23T16:50:43.213Z,98110.52
2024-03-23T16:55:47.551Z,98120.93
2024-03-23T17:00:53.759Z,98143.83
2024-03-23T17:05:58.044Z,98170.58
2024-03-23T17:11:02.493Z,98184.27
2024-03-23T17:16:08.059Z,98174.67
2024-03-23T17:21:12.229Z,98181.60
2024-03-23T17:26:20.796Z,98207.31
2024-03-23T17:31:25.413Z,98232.56
2024-03-23T17:36:30.944Z,98240.08
2024-03-23T17:41:35.599Z,98255.34
2024-03-23T17:46:40.411Z,98270.83
2024-03-23T17:51:45.670Z,98293.39
2024-03-23T17:56:50.104Z,98281.73
2024-03-23T18:01:54.943Z,98280.75
2024-03-23T18:06:59.201Z,98283.66
2024-03-23T18:12:03.480Z,98297.89
2024-03-23T18:17:08.251Z,98310.60
2024-03-23T18:22:12.843Z,98316.93
2024-03-23T18:27:17.564Z,98304.92
2024-03-23T18:32:22.712Z,98298.86
2024-03-23T18:37:27.489Z,98310.03
2024-03-23T18:42:33.846Z,98331.13
2024-03-23T18:47:39.699Z,98325.87
2024-03-23T18:52:43.961Z,98342.41
2024-03-23T18:57:48.735Z,98332.70
2024-03-23T19:02:53.040Z,98298.89
2024-03-23T19:07:58.423Z,98302.77
2024-03-23T19:13:03.550Z,98301.55
2024-03-23T19:18:07.783Z,98295.81
2024-03-23T19:23:11.968Z,98305.02
2024-03-23T19:28:16.664Z,98311.00
2024-03-23T19:33:22.079Z,98331.14
2024-03-23T19:38:26.775Z,98345.41
2024-03-23T19:43:31.904Z,98349.91
2024-03-23T19:48:36.594Z,98333.31
2024-03-23T19:53:41.290Z,98322.39
2024-03-23T19:58:45.146Z,98333.69
2024-03-23T20:03:50.100Z,98364.41
2024-03-23T20:08:54.948Z,98384.48
2024-03-23T20:13:59.369Z,98386.88
2024-03-23T20:19:03.648Z,98402.27
2024-03-23T20:24:08.540Z,98396.06
2024-03-23T20:29:14.277Z,98392.17
2024-03-23T20:34:19.659Z,98380.37
2024-03-23T20:39:24.277Z,98413.13
2024-03-23T20:44:28.675Z,98428.84
2024-03-23T20:49:32.998Z,98442.77
2024-03-23T20:54:37.408Z,98453.69
2024-03-23T20:59:42.388Z,98443.11
2024-03-23T21:04:47.263Z,98436.67
2024-03-23T21:09:51.987Z,98438.33
2024-03-23T21:14:56.835Z,98440.38
2024-03-23T21:20:01.264Z,98420.08
2024-03-23T21:25:06.835Z,98406.61
2024-03-23T21:30:12.117Z,98384.22
2024-03-23T21:35:17.491Z,98410.46
2024-03-23T21:40:21.295Z,98426.68
2024-03-23T21:45:25.695Z,98435.60
2024-03-23T21:50:31.330Z,98434.74
2024-03-23T21:55:35.913Z,98452.34
2024-03-23T22:00:40.308Z,98441.20
2024-03-23T22:05:44.809Z,98434.10
2024-03-23T22:10:49.495Z,98443.77
2024-03-23T22:16:00.030Z,98446.38
2024-03-23T22:21:05.288Z,98442.13
2024-03-23T22:26:09.798Z,98449.39
2024-03-23T22:31:14.470Z,98446.95
2024-03-23T22:36:18.970Z,98454.77
2024-03-23T22:41:23.547Z,98462.55
2024-03-23T22:46:28.038Z,98474.76
2024-03-23T22:51:32.905Z,98451.84
2024-03-23T22:56:37.964Z,98458.55
2024-03-23T23:01:42.766Z,98449.75
2024-03-23T23:06:47.603Z,98451.05
2024-03-23T23:11:52.406Z,98457.30
2024-03-23T23:16:57.350Z,98453.92
2024-03-23T23:22:01.204Z,98455.45
2024-03-23T23:27:06.190Z,98459.48
2024-03-23T23:32:10.587Z,98458.87
2024-03-23T23:37:15.939Z,98458.55
2024-03-23T23:42:20.258Z,98460.38
2024-03-23T23:47:24.909Z,98464.29
2024-03-23T23:52:30.458Z,98469.39
2024-03-23T23:57:35.231Z,98465.61
